createdAt,value
2023-02-19T00:01:21.921Z,5.74
2023-02-19T00:03:51.494Z,5.77
2023-02-19T00:06:20.506Z,5.83
2023-02-19T00:08:48.456Z,5.84
2023-02-19T00:11:18.780Z,5.83
2023-02-19T00:13:49.037Z,5.85
2023-02-19T00:16:20.641Z,5.82
2023-02-19T00:18:49.418Z,5.84
2023-02-19T00:21:19.366Z,5.88
2023-02-19T00:23:49.686Z,5.93
2023-02-19T00:26:18.893Z,6.01
2023-02-19T00:28:47.393Z,6.03
2023-02-19T00:31:18.569Z,6.01
2023-02-19T00:33:48.409Z,6.05
2023-02-19T00:36:16.388Z,6.05
2023-02-19T00:38:45.394Z,6.06
2023-02-19T00:41:14.353Z,6.11
2023-02-19T00:43:43.924Z,6.12
2023-02-19T00:46:11.671Z,6.14
2023-02-19T00:48:41.269Z,6.16
2023-02-19T00:51:10.710Z,6.13
2023-02-19T00:53:40.178Z,6.14
2023-02-19T00:56:08.477Z,6.05
2023-02-19T00:58:36.395Z,6.11
2023-02-19T01:01:05.580Z,6.12
2023-02-19T01:03:33.690Z,6.13
2023-02-19T01:06:01.824Z,6.12
2023-02-19T01:08:32.258Z,6.12
2023-02-19T01:11:05.876Z,6.12
2023-02-19T01:13:34.404Z,6.08
2023-02-19T01:16:06.010Z,6.02
2023-02-19T01:18:34.740Z,5.92
2023-02-19T01:21:06.641Z,5.89
2023-02-19T01:23:39.189Z,5.92
2023-02-19T01:26:08.332Z,5.90
2023-02-19T01:28:36.044Z,5.90
2023-02-19T01:31:05.094Z,5.89
2023-02-19T01:33:35.028Z,5.90
2023-02-19T01:36:03.952Z,5.89
2023-02-19T01:38:31.922Z,5.89
2023-02-19T01:41:03.807Z,5.83
2023-02-19T01:43:33.357Z,5.88
2023-02-19T01:46:02.841Z,5.87
2023-02-19T01:48:34.269Z,5.85
2023-02-19T01:51:08.428Z,5.86
2023-02-19T01:53:39.943Z,5.88
2023-02-19T01:56:10.058Z,5.85
2023-02-19T01:58:38.609Z,5.87
2023-02-19T02:01:09.639Z,5.84
2023-02-19T02:03:40.624Z,5.79
2023-02-19T02:06:14.626Z,5.79
2023-02-19T02:08:42.534Z,5.76
2023-02-19T02:11:11.819Z,5.75
2023-02-19T02:13:40.874Z,5.76
2023-02-19T02:16:21.247Z,5.78
2023-02-19T02:19:00.388Z,5.80
2023-02-19T02:21:36.332Z,5.81
2023-02-19T02:24:18.306Z,5.75
2023-02-19T02:27:04.236Z,5.76
2023-02-19T02:30:10.134Z,5.76
2023-02-19T02:32:43.276Z,5.76
2023-02-19T02:35:13.795Z,5.76
2023-02-19T02:37:44.017Z,5.79
2023-02-19T02:40:12.702Z,5.79
2023-02-19T02:42:44.005Z,5.78
2023-02-19T02:45:27.758Z,5.79
2023-02-19T02:47:58.630Z,5.77
2023-02-19T02:50:31.111Z,5.80
2023-02-19T02:53:02.335Z,5.72
2023-02-19T02:55:34.697Z,5.75
2023-02-19T02:58:03.264Z,5.76
2023-02-19T03:00:35.817Z,5.76
2023-02-19T03:03:05.049Z,5.78
2023-02-19T03:05:33.464Z,5.80
2023-02-19T03:08:06.389Z,5.67
2023-02-19T03:10:40.847Z,5.73
2023-02-19T03:13:27.666Z,5.68
2023-02-19T03:16:02.596Z,5.64
2023-02-19T03:18:34.247Z,5.63
2023-02-19T03:21:04.242Z,5.63
2023-02-19T03:23:35.417Z,5.64
2023-02-19T03:26:04.373Z,5.61
2023-02-19T03:28:35.238Z,5.61
2023-02-19T03:31:11.532Z,5.57
2023-02-19T03:33:43.050Z,5.56
2023-02-19T03:36:13.803Z,5.45
2023-02-19T03:38:44.955Z,5.36
2023-02-19T03:41:22.153Z,5.22
2023-02-19T03:44:01.315Z,5.02
2023-02-19T03:46:42.155Z,5.17
2023-02-19T03:49:18.036Z,5.25
2023-02-19T03:51:51.323Z,5.25
2023-02-19T03:54:23.498Z,5.22
2023-02-19T03:56:56.459Z,5.20
2023-02-19T03:59:30.997Z,5.11
2023-02-19T04:02:03.539Z,5.06
2023-02-19T04:04:36.526Z,4.94
2023-02-19T04:07:04.429Z,4.85
2023-02-19T04:09:37.568Z,4.90
2023-02-19T04:12:08.260Z,5.04
2023-02-19T04:14:41.190Z,5.21
2023-02-19T04:17:17.000Z,5.40
2023-02-19T04:19:48.301Z,5.47
2023-02-19T04:22:17.837Z,5.48
2023-02-19T04:24:49.377Z,5.56
2023-02-19T04:27:17.919Z,5.57
2023-02-19T04:29:46.532Z,5.61
2023-02-19T04:32:15.884Z,5.60
2023-02-19T04:34:43.446Z,5.64
2023-02-19T04:37:12.115Z,5.57
2023-02-19T04:39:39.837Z,5.60
2023-02-19T04:42:07.909Z,5.56
2023-02-19T04:44:35.730Z,5.57
2023-02-19T04:47:03.574Z,5.57
2023-02-19T04:49:32.660Z,5.57
2023-02-19T04:52:00.590Z,5.56
2023-02-19T04:54:28.614Z,5.48
2023-02-19T04:56:56.178Z,5.51
2023-02-19T04:59:24.894Z,5.45
2023-02-19T05:01:52.658Z,5.45
2023-02-19T05:04:20.461Z,5.46
2023-02-19T05:06:49.849Z,5.47
2023-02-19T05:09:17.673Z,5.48
2023-02-19T05:11:45.218Z,5.49
2023-02-19T05:14:12.841Z,5.49
2023-02-19T05:16:41.795Z,5.47
2023-02-19T05:19:11.346Z,5.45
2023-02-19T05:21:39.570Z,5.48
2023-02-19T05:24:09.002Z,5.50
2023-02-19T05:26:36.798Z,5.49
2023-02-19T05:29:04.566Z,5.44
2023-02-19T05:31:33.165Z,5.41
2023-02-19T05:34:00.916Z,5.38
2023-02-19T05:36:28.933Z,5.34
2023-02-19T05:38:57.679Z,5.29
2023-02-19T05:41:28.501Z,5.28
2023-02-19T05:43:56.812Z,5.33
2023-02-19T05:46:26.098Z,5.55
2023-02-19T05:48:53.961Z,5.73
2023-02-19T05:51:24.162Z,5.81
2023-02-19T05:53:52.659Z,5.94
2023-02-19T05:56:31.429Z,6.07
2023-02-19T05:59:00.820Z,6.14
2023-02-19T06:01:28.915Z,6.22
2023-02-19T06:03:57.879Z,6.20
2023-02-19T06:06:26.739Z,6.11
2023-02-19T06:08:54.680Z,6.05
2023-02-19T06:11:22.652Z,6.03
2023-02-19T06:13:52.946Z,5.97
2023-02-19T06:16:21.773Z,5.96
2023-02-19T06:18:49.637Z,6.01
2023-02-19T06:21:18.553Z,5.96
2023-02-19T06:23:46.398Z,6.03
2023-02-19T06:26:16.329Z,6.16
2023-02-19T06:28:44.748Z,6.13
2023-02-19T06:31:14.678Z,6.25
2023-02-19T06:33:42.751Z,6.25
2023-02-19T06:36:13.280Z,6.24
2023-02-19T06:38:41.066Z,6.24
2023-02-19T06:41:12.528Z,6.19
2023-02-19T06:43:42.394Z,6.12
2023-02-19T06:46:12.284Z,6.14
2023-02-19T06:48:44.752Z,6.22
2023-02-19T06:51:13.289Z,6.22
2023-02-19T06:53:41.794Z,6.19
2023-02-19T06:56:24.206Z,6.28
2023-02-19T06:58:52.560Z,6.50
2023-02-19T07:01:20.537Z,6.67
2023-02-19T07:03:50.046Z,6.75
2023-02-19T07:06:17.648Z,6.83
2023-02-19T07:08:46.688Z,6.93
2023-02-19T07:11:15.130Z,7.11
2023-02-19T07:13:42.988Z,6.99
2023-02-19T07:16:12.116Z,6.97
2023-02-19T07:18:40.886Z,7.06
2023-02-19T07:21:13.404Z,7.58
2023-02-19T07:23:43.779Z,7.68
2023-02-19T07:26:13.649Z,7.54
2023-02-19T07:28:41.534Z,7.59
2023-02-19T07:31:10.134Z,7.65
2023-02-19T07:33:38.543Z,7.92
2023-02-19T07:36:08.246Z,7.98
2023-02-19T07:38:37.594Z,8.01
2023-02-19T07:41:06.571Z,8.07
2023-02-19T07:43:36.429Z,8.17
2023-02-19T07:46:05.171Z,8.39
2023-02-19T07:48:34.095Z,8.32
2023-02-19T07:51:02.408Z,8.41
2023-02-19T07:53:30.693Z,8.80
2023-02-19T07:56:02.010Z,8.99
2023-02-19T07:58:30.148Z,9.20
2023-02-19T08:01:07.586Z,9.33
2023-02-19T08:03:36.194Z,9.10
2023-02-19T08:06:05.390Z,9.04
2023-02-19T08:08:33.806Z,9.01
2023-02-19T08:11:05.203Z,9.22
2023-02-19T08:13:33.200Z,9.36
2023-02-19T08:16:20.140Z,9.40
2023-02-19T08:18:52.244Z,9.55
2023-02-19T08:21:20.392Z,9.69
2023-02-19T08:23:50.599Z,9.95
2023-02-19T08:26:20.749Z,10.08
2023-02-19T08:28:48.958Z,10.34
2023-02-19T08:31:16.958Z,10.61
2023-02-19T08:33:45.705Z,10.82
2023-02-19T08:36:13.700Z,10.82
2023-02-19T08:38:41.253Z,10.78
2023-02-19T08:41:11.859Z,10.93
2023-02-19T08:43:42.114Z,10.72
2023-02-19T08:46:11.553Z,10.62
2023-02-19T08:48:40.037Z,10.50
2023-02-19T08:51:10.438Z,10.71
2023-02-19T08:53:40.635Z,11.03
2023-02-19T08:56:10.411Z,11.15
2023-02-19T08:58:38.698Z,11.18
2023-02-19T09:01:10.794Z,10.87
2023-02-19T09:03:38.509Z,10.94
2023-02-19T09:06:06.889Z,10.77
2023-02-19T09:08:36.826Z,10.55
2023-02-19T09:11:05.398Z,10.48
2023-02-19T09:13:33.283Z,10.37
2023-02-19T09:16:03.251Z,10.37
2023-02-19T09:18:32.687Z,10.70
2023-02-19T09:21:01.059Z,10.40
2023-02-19T09:23:28.776Z,10.21
2023-02-19T09:25:59.919Z,9.96
2023-02-19T09:28:28.230Z,10.13
2023-02-19T09:30:55.846Z,10.36
2023-02-19T09:33:23.593Z,10.34
2023-02-19T09:35:53.018Z,10.52
2023-02-19T09:38:20.786Z,10.63
2023-02-19T09:40:48.390Z,10.77
2023-02-19T09:43:20.927Z,11.01
2023-02-19T09:45:49.588Z,11.09
2023-02-19T09:48:17.393Z,11.08
2023-02-19T09:50:47.832Z,11.22
2023-02-19T09:53:21.863Z,11.20
2023-02-19T09:55:50.027Z,11.21
2023-02-19T09:58:24.278Z,11.35
2023-02-19T10:00:55.064Z,11.43
2023-02-19T10:03:27.362Z,11.54
2023-02-19T10:05:55.506Z,11.46
2023-02-19T10:08:24.588Z,11.39
2023-02-19T10:10:54.743Z,11.50
2023-02-19T10:13:28.204Z,11.52
2023-02-19T10:15:58.005Z,11.63
2023-02-19T10:18:28.373Z,11.57
2023-02-19T10:20:57.242Z,11.46
2023-02-19T10:23:26.506Z,11.59
2023-02-19T10:25:57.373Z,11.65
2023-02-19T10:28:27.950Z,11.74
2023-02-19T10:30:58.367Z,11.65
2023-02-19T10:33:26.678Z,11.77
2023-02-19T10:35:56.706Z,11.75
2023-02-19T10:38:30.051Z,11.89
2023-02-19T10:41:04.549Z,11.78
2023-02-19T10:43:36.726Z,11.88
2023-02-19T10:46:07.200Z,11.91
2023-02-19T10:48:38.429Z,11.92
2023-02-19T10:51:09.653Z,11.95
2023-02-19T10:53:44.259Z,12.06
2023-02-19T10:56:14.866Z,11.97
2023-02-19T10:58:44.106Z,12.00
2023-02-19T11:01:17.614Z,12.13
2023-02-19T11:03:46.490Z,12.12
2023-02-19T11:06:17.702Z,12.02
2023-02-19T11:08:52.518Z,12.06
2023-02-19T11:11:26.186Z,11.95
2023-02-19T11:13:57.231Z,11.86
2023-02-19T11:16:38.654Z,11.86
2023-02-19T11:19:06.618Z,11.86
2023-02-19T11:21:34.266Z,11.96
2023-02-19T11:24:03.810Z,11.96
2023-02-19T11:26:33.874Z,12.14
2023-02-19T11:29:11.461Z,12.17
2023-02-19T11:31:39.709Z,12.08
2023-02-19T11:34:29.638Z,12.05
2023-02-19T11:37:18.754Z,12.17
2023-02-19T11:39:49.613Z,12.25
2023-02-19T11:42:45.784Z,12.27
2023-02-19T11:45:27.578Z,12.34
2023-02-19T11:48:24.691Z,12.19
2023-02-19T11:51:15.787Z,12.21
2023-02-19T11:53:49.793Z,12.23
2023-02-19T11:56:23.823Z,12.37
2023-02-19T11:59:02.145Z,12.38
2023-02-19T12:01:51.781Z,12.29
2023-02-19T12:04:55.630Z,12.37
2023-02-19T12:07:41.188Z,12.20
2023-02-19T12:10:20.471Z,12.04
2023-02-19T12:13:02.336Z,11.91
2023-02-19T12:15:39.845Z,11.79
2023-02-19T12:18:39.715Z,11.81
2023-02-19T12:21:22.325Z,11.75
2023-02-19T12:24:11.852Z,11.54
2023-02-19T12:26:47.501Z,11.42
2023-02-19T12:29:33.042Z,11.33
2023-02-19T12:32:26.179Z,11.26
2023-02-19T12:35:29.016Z,11.35
2023-02-19T12:38:07.906Z,11.40
2023-02-19T12:40:50.339Z,11.45
2023-02-19T12:43:19.313Z,11.53
2023-02-19T12:45:55.511Z,11.53
2023-02-19T12:48:29.568Z,11.61
2023-02-19T12:51:02.894Z,11.65
2023-02-19T12:53:40.409Z,11.65
2023-02-19T12:56:14.952Z,11.66
2023-02-19T12:58:48.230Z,11.72
2023-02-19T13:01:24.331Z,11.71
2023-02-19T13:04:03.744Z,11.70
2023-02-19T13:06:37.726Z,11.70
2023-02-19T13:09:27.927Z,11.63
2023-02-19T13:12:02.093Z,11.62
2023-02-19T13:14:34.523Z,11.60
2023-02-19T13:17:13.536Z,11.55
2023-02-19T13:19:43.695Z,11.47
2023-02-19T13:22:22.683Z,11.43
2023-02-19T13:24:52.306Z,11.40
2023-02-19T13:27:37.357Z,11.34
2023-02-19T13:30:24.909Z,11.26
2023-02-19T13:33:04.492Z,11.21
2023-02-19T13:36:11.083Z,11.21
2023-02-19T13:38:41.396Z,11.21
2023-02-19T13:41:19.839Z,11.17
2023-02-19T13:43:56.091Z,11.16
2023-02-19T13:46:36.419Z,11.16
2023-02-19T13:49:42.405Z,11.10
2023-02-19T13:52:37.077Z,11.07
2023-02-19T13:55:42.438Z,11.03
2023-02-19T13:58:52.192Z,11.00
2023-02-19T14:01:40.737Z,10.96
2023-02-19T14:04:18.397Z,10.89
2023-02-19T14:07:45.644Z,10.81
2023-02-19T14:10:55.626Z,10.74
2023-02-19T14:14:05.765Z,10.69
2023-02-19T14:17:13.003Z,10.65
2023-02-19T14:19:50.901Z,10.57
2023-02-19T14:22:47.685Z,10.50
2023-02-19T14:25:29.115Z,10.45
2023-02-19T14:28:02.030Z,10.41
2023-02-19T14:30:31.897Z,10.38
2023-02-19T14:33:10.512Z,10.32
2023-02-19T14:35:45.456Z,10.28
2023-02-19T14:38:20.226Z,10.23
2023-02-19T14:40:51.518Z,10.19
2023-02-19T14:43:22.390Z,10.17
2023-02-19T14:45:53.841Z,10.16
2023-02-19T14:48:25.797Z,10.10
2023-02-19T14:51:02.254Z,10.09
2023-02-19T14:53:33.066Z,10.07
2023-02-19T14:56:02.024Z,10.01
2023-02-19T14:58:32.409Z,9.98
2023-02-19T15:01:01.460Z,9.93
2023-02-19T15:03:34.391Z,9.89
2023-02-19T15:06:06.120Z,9.77
2023-02-19T15:08:38.056Z,9.65
2023-02-19T15:11:12.530Z,9.62
2023-02-19T15:13:41.769Z,9.54
2023-02-19T15:16:09.698Z,9.48
2023-02-19T15:18:37.946Z,9.33
2023-02-19T15:21:24.779Z,9.27
2023-02-19T15:23:55.080Z,9.19
2023-02-19T15:26:29.938Z,9.18
2023-02-19T15:28:59.619Z,9.11
2023-02-19T15:31:27.509Z,9.11
2023-02-19T15:33:56.009Z,9.04
2023-02-19T15:36:30.316Z,8.97
2023-02-19T15:39:01.608Z,8.87
2023-02-19T15:41:33.169Z,8.77
2023-02-19T15:44:22.360Z,8.73
2023-02-19T15:46:50.376Z,8.70
2023-02-19T15:49:21.610Z,8.66
2023-02-19T15:51:55.638Z,8.60
2023-02-19T15:54:27.933Z,8.70
2023-02-19T15:57:00.439Z,8.68
2023-02-19T15:59:32.253Z,8.56
2023-02-19T16:02:01.166Z,8.58
2023-02-19T16:04:29.823Z,8.51
2023-02-19T16:06:59.829Z,8.44
2023-02-19T16:09:31.009Z,8.39
2023-02-19T16:12:01.475Z,8.35
2023-02-19T16:14:33.186Z,8.38
2023-02-19T16:17:12.298Z,8.32
2023-02-19T16:19:46.378Z,8.30
2023-02-19T16:22:17.943Z,8.25
2023-02-19T16:24:48.776Z,8.18
2023-02-19T16:27:29.647Z,8.17
2023-02-19T16:29:58.112Z,8.19
2023-02-19T16:32:26.096Z,8.17
2023-02-19T16:34:54.280Z,8.17
2023-02-19T16:37:36.424Z,8.10
2023-02-19T16:40:49.454Z,8.10
2023-02-19T16:43:30.590Z,8.06
2023-02-19T16:45:59.794Z,7.99
2023-02-19T16:48:28.029Z,7.93
2023-02-19T16:51:00.808Z,7.90
2023-02-19T16:53:28.642Z,7.87
2023-02-19T16:56:00.195Z,7.87
2023-02-19T16:58:29.363Z,7.91
2023-02-19T17:00:57.580Z,7.98
2023-02-19T17:03:26.013Z,8.02
2023-02-19T17:05:53.907Z,8.14
2023-02-19T17:08:32.209Z,8.21
2023-02-19T17:11:02.475Z,8.22
2023-02-19T17:13:32.685Z,8.22
2023-02-19T17:16:00.346Z,8.27
2023-02-19T17:18:28.118Z,8.48
2023-02-19T17:20:58.477Z,8.49
2023-02-19T17:23:26.104Z,8.47
2023-02-19T17:25:53.888Z,8.40
2023-02-19T17:28:21.919Z,8.33
2023-02-19T17:30:50.961Z,8.30
2023-02-19T17:33:18.831Z,8.24
2023-02-19T17:35:46.464Z,8.22
2023-02-19T17:38:14.540Z,8.16
2023-02-19T17:40:42.649Z,8.04
2023-02-19T17:43:10.613Z,7.83
2023-02-19T17:45:38.693Z,7.70
2023-02-19T17:48:11.755Z,7.51
2023-02-19T17:50:39.818Z,7.33
2023-02-19T17:53:08.569Z,7.11
2023-02-19T17:55:36.296Z,7.04
2023-02-19T17:58:06.126Z,6.96
2023-02-19T18:00:33.822Z,6.71
2023-02-19T18:03:02.762Z,6.53
2023-02-19T18:05:31.963Z,6.43
2023-02-19T18:07:59.634Z,6.29
2023-02-19T18:10:27.549Z,6.24
2023-02-19T18:12:55.407Z,6.18
2023-02-19T18:15:24.650Z,6.10
2023-02-19T18:17:53.699Z,6.10
2023-02-19T18:20:25.923Z,5.90
2023-02-19T18:22:56.295Z,5.74
2023-02-19T18:25:24.415Z,5.67
2023-02-19T18:27:52.579Z,5.57
2023-02-19T18:30:22.258Z,5.47
2023-02-19T18:32:51.007Z,5.43
2023-02-19T18:35:19.942Z,5.41
2023-02-19T18:37:51.165Z,5.43
2023-02-19T18:40:21.462Z,5.49
2023-02-19T18:42:49.723Z,5.48
2023-02-19T18:45:18.127Z,5.44
2023-02-19T18:47:46.962Z,5.46
2023-02-19T18:50:14.992Z,5.39
2023-02-19T18:52:42.637Z,5.44
2023-02-19T18:55:11.518Z,5.49
2023-02-19T18:57:40.485Z,5.50
2023-02-19T19:00:09.499Z,5.46
2023-02-19T19:02:48.678Z,5.37
2023-02-19T19:05:18.829Z,5.25
2023-02-19T19:07:46.489Z,5.21
2023-02-19T19:10:17.185Z,5.11
2023-02-19T19:12:46.257Z,5.14
2023-02-19T19:15:17.049Z,5.13
2023-02-19T19:17:45.340Z,5.10
2023-02-19T19:20:14.285Z,5.10
2023-02-19T19:22:43.110Z,5.05
2023-02-19T19:25:10.693Z,5.07
2023-02-19T19:27:40.925Z,5.12
2023-02-19T19:30:10.899Z,5.17
2023-02-19T19:32:38.946Z,5.26
2023-02-19T19:35:07.084Z,5.27
2023-02-19T19:37:35.058Z,5.32
2023-02-19T19:40:02.965Z,5.45
2023-02-19T19:42:30.938Z,5.50
2023-02-19T19:44:58.715Z,5.65
2023-02-19T19:47:28.024Z,5.75
2023-02-19T19:49:55.869Z,5.86
2023-02-19T19:52:23.596Z,5.97
2023-02-19T19:54:51.117Z,6.07
2023-02-19T19:57:18.882Z,6.15
2023-02-19T19:59:49.054Z,6.23
2023-02-19T20:02:17.260Z,6.29
2023-02-19T20:04:46.401Z,6.37
2023-02-19T20:07:14.119Z,6.41
2023-02-19T20:09:47.778Z,6.47
2023-02-19T20:12:16.025Z,6.52
2023-02-19T20:14:44.607Z,6.54
2023-02-19T20:17:14.859Z,6.60
2023-02-19T20:19:45.256Z,6.64
2023-02-19T20:22:14.308Z,6.69
2023-02-19T20:24:41.997Z,6.75
2023-02-19T20:27:11.955Z,6.72
2023-02-19T20:29:39.489Z,6.73
2023-02-19T20:32:07.287Z,6.76
2023-02-19T20:34:35.654Z,6.78
2023-02-19T20:37:03.630Z,6.82
2023-02-19T20:39:34.382Z,6.86
2023-02-19T20:42:01.950Z,6.92
2023-02-19T20:44:31.984Z,6.94
2023-02-19T20:47:00.676Z,6.94
2023-02-19T20:49:30.550Z,6.93
2023-02-19T20:52:01.572Z,6.94
2023-02-19T20:54:30.775Z,6.92
2023-02-19T20:57:02.074Z,6.92
2023-02-19T20:59:31.898Z,6.89
2023-02-19T21:02:00.481Z,6.85
2023-02-19T21:04:28.405Z,6.84
2023-02-19T21:06:56.791Z,6.82
2023-02-19T21:09:25.142Z,6.83
2023-02-19T21:11:53.139Z,6.82
2023-02-19T21:14:24.117Z,6.81
2023-02-19T21:16:51.687Z,7.21
2023-02-19T21:19:19.911Z,7.04
2023-02-19T21:21:47.880Z,6.90
2023-02-19T21:24:15.891Z,6.80
2023-02-19T21:26:44.385Z,6.68
2023-02-19T21:29:16.891Z,6.52
2023-02-19T21:31:48.090Z,6.48
2023-02-19T21:34:18.620Z,6.38
2023-02-19T21:36:46.385Z,6.30
2023-02-19T21:39:16.734Z,6.28
2023-02-19T21:41:44.611Z,6.28
2023-02-19T21:44:13.384Z,6.27
2023-02-19T21:46:41.360Z,6.16
2023-02-19T21:49:11.704Z,6.21
2023-02-19T21:51:40.619Z,6.18
2023-02-19T21:54:13.239Z,6.17
2023-02-19T21:56:40.839Z,6.15
2023-02-19T21:59:08.830Z,6.16
2023-02-19T22:01:38.368Z,6.19
2023-02-19T22:04:10.781Z,6.20
2023-02-19T22:06:38.934Z,6.27
2023-02-19T22:09:13.374Z,6.31
2023-02-19T22:11:42.832Z,6.34
2023-02-19T22:14:10.823Z,6.36
2023-02-19T22:16:39.668Z,6.29
2023-02-19T22:19:07.600Z,6.40
2023-02-19T22:21:41.270Z,6.42
2023-02-19T22:24:15.439Z,6.42
2023-02-19T22:26:43.465Z,6.48
2023-02-19T22:29:13.974Z,6.46
2023-02-19T22:31:42.551Z,6.45
2023-02-19T22:34:10.408Z,6.45
2023-02-19T22:36:39.571Z,6.49
2023-02-19T22:39:27.826Z,6.46
2023-02-19T22:41:55.450Z,6.41
2023-02-19T22:44:23.261Z,6.43
2023-02-19T22:46:55.287Z,6.38
2023-02-19T22:49:23.839Z,6.41
2023-02-19T22:51:58.496Z,6.45
2023-02-19T22:54:26.383Z,6.43
2023-02-19T22:56:54.291Z,6.44
2023-02-19T22:59:22.976Z,6.40
2023-02-19T23:01:51.512Z,6.29
2023-02-19T23:04:21.862Z,6.36
2023-02-19T23:06:49.798Z,6.26
2023-02-19T23:09:21.271Z,6.14
2023-02-19T23:11:48.921Z,6.06
2023-02-19T23:14:20.260Z,5.87
2023-02-19T23:16:48.309Z,5.76
2023-02-19T23:19:19.118Z,5.62
2023-02-19T23:21:47.120Z,5.51
2023-02-19T23:24:15.373Z,5.37
2023-02-19T23:26:46.493Z,5.09
2023-02-19T23:29:16.608Z,5.11
2023-02-19T23:31:44.526Z,4.95
2023-02-19T23:34:12.530Z,4.80
2023-02-19T23:36:41.009Z,4.66
2023-02-19T23:39:09.564Z,4.45
2023-02-19T23:41:37.210Z,4.14
2023-02-19T23:44:06.732Z,4.04
2023-02-19T23:46:34.395Z,3.91
2023-02-19T23:49:02.088Z,3.90
2023-02-19T23:51:29.862Z,3.81
2023-02-19T23:53:57.562Z,3.80
2023-02-19T23:56:25.693Z,3.75
2023-02-19T23:58:53.590Z,3.68
